Relevés horaires Bierset (Belgique)


Relevés horaires à Bierset - Mardi 07 Août 2018
Heure UTC1 Température [°C] Vent [km/h] Hum. [%] Pres.4 [hPa] Visi. [Km] Nébu. [octa] Préc.5 [mm] Cond.
2m. Res. Ros. Dir.2 Vit. Moy. Raf.3
23:00 27.6 27.6 11.5 SE 5.6 7.4 18.5 37 1005.6(-1.4/3h) 30 7/8 -- --
22:00 28.5 28.5 10.8 SSE 7.4 11.1 16.7 33 1006.4(-0.9/3h) 30 7/8 -- --
21:00 29.1 29.1 9.5 SE 5.6 7.4 11.1 29 1006.7(-0.9/3h) 30 7/8 -- --
20:00 30.6 30.6 9.0 E 7.4 7.4 11.1 26 1006.6(-0.8/3h) 30 7/8 -- --
19:00 30.3 30.3 8.6 NNO 0.0 3.7 3.7 26 1007.2(-0.4/3h) 30 7/8 -- --
18:00 31.3 31.3 9.6 N 3.7 9.3 14.8 26 1007.5(-0.1/3h) 30 6/8 0/12h
--
17:00 33.5 33.5 9.1 NO 5.6 9.3 13.0 22 1007.2(-0.5/3h) 30 3/8 -- --
16:00 34.2 34.2 7.9 OSO 3.7 9.3 14.8 20 1007.3(-0.8/3h) 30 3/8 -- --
15:00 34.8 34.8 7.3 SO 7.4 9.3 14.8 18 1007.3(-1.3/3h) 30 1/8 -- --
14:00 34.2 34.2 6.1 OSO 5.6 9.3 14.8 18 1007.6(-1.6/3h) 30 1/8 -- --
13:00 33.6 33.6 7.0 SSO 5.6 5.6 11.1 19 1008.2(-1.4/3h) 30 1/8 -- --
12:00 33.3 33.3 8.6 NNO 3.7 7.4 13.0 22 1008.8(-1.2/3h) 35 0/8 0/6h
--
11:00 31.6 31.6 9.0 NNO 5.6 5.6 13.0 25 1009.5(-0.8/3h) 35 0/8 -- --
10:00 30.5 30.5 10.2 NNO 3.7 3.7 9.3 29 1009.8(-0.7/3h) 35 0/8 -- --
09:00 29.1 29.1 11.6 OSO 3.7 7.4 13.0 34 1010.3(0.1/3h) 35 0/8 -- --
08:00 26.7 26.7 12.4 SSO 3.7 5.6 9.3 41 1010.6(0.2/3h) 35 0/8 -- --
07:00 23.8 23.8 12.4 S 5.6 7.4 13.0 49 1011(0.4/3h) 35 1/8 -- --
06:00 21.8 21.8 11.5 S 3.7 5.6 13.0 52 1010.9(-0.1/3h) 35 1/8 0/12h
--
05:00 20.6 20.6 11.3 SSO 5.6 5.6 11.1 55 1010.8(-0.3/3h) 50 1/8 -- --
04:00 19.5 19.5 12.1 SSO 3.7 5.6 11.1 62 1010.8(-0.7/3h) 20 0/8 -- --
03:00 21.4 21.4 11.6 SSO 5.6 5.6 11.1 54 1010.8(-1.1/3h) 35 0/8 -- --
02:00 21.5 21.5 12.5 SSO 3.7 3.7 11.1 57 1011(-1.2/3h) 45 0/8 -- --
01:00 22.6 22.6 12.7 SSE 1.9 3.7 3.7 54 1011.3(-1.0/3h) 45 0/8 -- --

1 Coordinated Universal Time. Actuellement il est 21:00 locale et 19:00 UTC.

2 Le vent souffle depuis la direction indiquée vers la direction oposée.

3 Les rafales max. sont disponible 40 min après l'heure du relevé.

4 Pour les stations d'altitude (plus de 600m) le géopotentiel du niveau le plus proche de la pression obligatoire est indiqué.

5 Les stations disposant d'un diffuseur peuvent indiquer "trace". Cela signifie que des précipitations ont touchés le sol mais que la quantité est inférieure à 0.1 mm.

Récapitulatif de la journée
Température [°C] Vent [km/h] Ensoleillement4 [h] Precipitations totale5 [mm] Pression [Hpa]
Min1 Max.2 Moy.3 Max. Min Max.
19.5 35.5 6.8 18.5 0 h 0 min 0 1005.6 1011.3

1 Température minimale relevée entre 18:00 UTC la veille et 18:00 UTC le jour donné.

2 Température maximale relevée entre 06:00 UTC le jour donné et 06:00 UTC le lendemain.

3 Vent moyen de la journée basé sur les relevés horaires.

4 Ensoleillement en heures relevé entre 06:00 UTC la veille et 06:00 UTC le jour donné.

5 Précipitations totales tombées entre 06:00 UTC la jour donné et 06:00 UTC le lendemain.

Graphiques horaires